sensor_id;sensor_type;location;lat;lon;timestamp;pressure;altitude;pressure_sealevel;temperature
6498;BMP280;3282;48.358;10.958;2022-08-21T00:02:15;96339.28;;;17.98
6498;BMP280;3282;48.358;10.958;2022-08-21T00:04:42;96349.66;;;18.03
6498;BMP280;3282;48.358;10.958;2022-08-21T00:07:23;96351.22;;;18.00
6498;BMP280;3282;48.358;10.958;2022-08-21T00:09:51;96350.09;;;17.98
6498;BMP280;3282;48.358;10.958;2022-08-21T00:12:20;96353.22;;;17.96
6498;BMP280;3282;48.358;10.958;2022-08-21T00:14:47;96342.84;;;17.91
6498;BMP280;3282;48.358;10.958;2022-08-21T00:17:17;96350.94;;;17.95
6498;BMP280;3282;48.358;10.958;2022-08-21T00:19:43;96334.00;;;17.87
6498;BMP280;3282;48.358;10.958;2022-08-21T00:22:10;96348.97;;;17.95
6498;BMP280;3282;48.358;10.958;2022-08-21T00:24:37;96342.84;;;17.91
6498;BMP280;3282;48.358;10.958;2022-08-21T00:27:03;96338.56;;;17.94
6498;BMP280;3282;48.358;10.958;2022-08-21T00:29:30;96338.22;;;17.91
6498;BMP280;3282;48.358;10.958;2022-08-21T00:31:57;96336.66;;;17.90
6498;BMP280;3282;48.358;10.958;2022-08-21T00:34:25;96330.56;;;17.83
6498;BMP280;3282;48.358;10.958;2022-08-21T00:36:51;96340.56;;;17.89
6498;BMP280;3282;48.358;10.958;2022-08-21T00:39:18;96327.50;;;17.84
6498;BMP280;3282;48.358;10.958;2022-08-21T00:41:45;96332.13;;;17.84
6498;BMP280;3282;48.358;10.958;2022-08-21T00:44:13;96333.66;;;17.85
6498;BMP280;3282;48.358;10.958;2022-08-21T00:46:42;96327.19;;;17.78
6498;BMP280;3282;48.358;10.958;2022-08-21T00:49:11;96329.44;;;17.84
6498;BMP280;3282;48.358;10.958;2022-08-21T00:51:46;96328.28;;;17.81
6498;BMP280;3282;48.358;10.958;2022-08-21T00:54:14;96329.09;;;17.78
6498;BMP280;3282;48.358;10.958;2022-08-21T00:56:46;96327.94;;;17.75
6498;BMP280;3282;48.358;10.958;2022-08-21T00:59:16;96324.50;;;17.75
6498;BMP280;3282;48.358;10.958;2022-08-21T01:01:43;96313.84;;;17.64
6498;BMP280;3282;48.358;10.958;2022-08-21T01:04:11;96323.44;;;17.69
6498;BMP280;3282;48.358;10.958;2022-08-21T01:06:37;96316.88;;;17.66
6498;BMP280;3282;48.358;10.958;2022-08-21T01:09:04;96306.94;;;17.56
6498;BMP280;3282;48.358;10.958;2022-08-21T01:11:30;96318.88;;;17.62
6498;BMP280;3282;48.358;10.958;2022-08-21T01:13:57;96318.50;;;17.60
6498;BMP280;3282;48.358;10.958;2022-08-21T01:16:24;96311.25;;;17.53
6498;BMP280;3282;48.358;10.958;2022-08-21T01:18:51;96300.91;;;17.44
6498;BMP280;3282;48.358;10.958;2022-08-21T01:21:24;96322.81;;;17.53
6498;BMP280;3282;48.358;10.958;2022-08-21T01:23:55;96320.13;;;17.53
6498;BMP280;3282;48.358;10.958;2022-08-21T01:26:28;96322.06;;;17.53
6498;BMP280;3282;48.358;10.958;2022-08-21T01:29:09;96307.84;;;17.45
6498;BMP280;3282;48.358;10.958;2022-08-21T01:31:38;96305.56;;;17.44
6498;BMP280;3282;48.358;10.958;2022-08-21T01:34:06;96314.41;;;17.48
6498;BMP280;3282;48.358;10.958;2022-08-21T01:36:33;96312.06;;;17.46
6498;BMP280;3282;48.358;10.958;2022-08-21T01:39:00;96292.56;;;17.31
6498;BMP280;3282;48.358;10.958;2022-08-21T01:41:27;96290.22;;;17.30
6498;BMP280;3282;48.358;10.958;2022-08-21T01:43:54;96316.41;;;17.40
6498;BMP280;3282;48.358;10.958;2022-08-21T01:46:20;96310.66;;;17.38
6498;BMP280;3282;48.358;10.958;2022-08-21T01:48:50;96306.41;;;17.37
6498;BMP280;3282;48.358;10.958;2022-08-21T01:51:16;96307.19;;;17.34
6498;BMP280;3282;48.358;10.958;2022-08-21T01:53:43;96293.47;;;17.17
6498;BMP280;3282;48.358;10.958;2022-08-21T01:56:13;96306.84;;;17.28
6498;BMP280;3282;48.358;10.958;2022-08-21T01:58:41;96308.84;;;17.24
6498;BMP280;3282;48.358;10.958;2022-08-21T02:01:08;96312.81;;;17.16
6498;BMP280;3282;48.358;10.958;2022-08-21T02:03:36;96309.00;;;17.09
6498;BMP280;3282;48.358;10.958;2022-08-21T02:06:04;96310.59;;;17.07
6498;BMP280;3282;48.358;10.958;2022-08-21T02:08:31;96302.88;;;17.05
6498;BMP280;3282;48.358;10.958;2022-08-21T02:10:58;96305.19;;;17.03
6498;BMP280;3282;48.358;10.958;2022-08-21T02:13:25;96304.47;;;16.99
6498;BMP280;3282;48.358;10.958;2022-08-21T02:15:52;96306.03;;;16.96
6498;BMP280;3282;48.358;10.958;2022-08-21T02:18:19;96287.59;;;16.87
6498;BMP280;3282;48.358;10.958;2022-08-21T02:20:48;96298.69;;;16.97
6498;BMP280;3282;48.358;10.958;2022-08-21T02:23:25;96286.81;;;16.91
6498;BMP280;3282;48.358;10.958;2022-08-21T02:26:01;96292.22;;;16.91
6498;BMP280;3282;48.358;10.958;2022-08-21T02:28:29;96291.84;;;16.89
6498;BMP280;3282;48.358;10.958;2022-08-21T02:30:56;96294.56;;;16.85
6498;BMP280;3282;48.358;10.958;2022-08-21T02:33:24;96289.19;;;16.81
6498;BMP280;3282;48.358;10.958;2022-08-21T02:35:54;96285.72;;;16.81
6498;BMP280;3282;48.358;10.958;2022-08-21T02:38:24;96284.56;;;16.82
6498;BMP280;3282;48.358;10.958;2022-08-21T02:40:53;96286.47;;;16.81
6498;BMP280;3282;48.358;10.958;2022-08-21T02:43:22;96284.59;;;16.78
6498;BMP280;3282;48.358;10.958;2022-08-21T02:45:51;96276.94;;;16.69
6498;BMP280;3282;48.358;10.958;2022-08-21T02:48:21;96287.34;;;16.74
6498;BMP280;3282;48.358;10.958;2022-08-21T02:50:58;96289.66;;;16.72
6498;BMP280;3282;48.358;10.958;2022-08-21T02:53:26;96297.00;;;16.72
6498;BMP280;3282;48.358;10.958;2022-08-21T02:55:53;96293.50;;;16.71
6498;BMP280;3282;48.358;10.958;2022-08-21T02:58:23;96281.66;;;16.61
6498;BMP280;3282;48.358;10.958;2022-08-21T03:00:51;96290.09;;;16.67
6498;BMP280;3282;48.358;10.958;2022-08-21T03:03:18;96291.63;;;16.68
6498;BMP280;3282;48.358;10.958;2022-08-21T03:05:50;96290.09;;;16.67
6498;BMP280;3282;48.358;10.958;2022-08-21T03:08:17;96292.84;;;16.64
6498;BMP280;3282;48.358;10.958;2022-08-21T03:10:47;96293.97;;;16.63
6498;BMP280;3282;48.358;10.958;2022-08-21T03:13:15;96297.84;;;16.61
6498;BMP280;3282;48.358;10.958;2022-08-21T03:15:42;96286.66;;;16.59
6498;BMP280;3282;48.358;10.958;2022-08-21T03:18:11;96284.03;;;16.52
6498;BMP280;3282;48.358;10.958;2022-08-21T03:20:40;96285.53;;;16.53
6498;BMP280;3282;48.358;10.958;2022-08-21T03:23:07;96288.66;;;16.52
6498;BMP280;3282;48.358;10.958;2022-08-21T03:25:45;96293.66;;;16.53
6498;BMP280;3282;48.358;10.958;2022-08-21T03:28:15;96291.75;;;16.50
6498;BMP280;3282;48.358;10.958;2022-08-21T03:30:43;96294.09;;;16.48
6498;BMP280;3282;48.358;10.958;2022-08-21T03:33:10;96288.72;;;16.44
6498;BMP280;3282;48.358;10.958;2022-08-21T03:35:44;96289.53;;;16.41
6498;BMP280;3282;48.358;10.958;2022-08-21T03:38:11;96300.34;;;16.41
6498;BMP280;3282;48.358;10.958;2022-08-21T03:40:40;96297.25;;;16.39
6498;BMP280;3282;48.358;10.958;2022-08-21T03:43:07;96298.44;;;16.34
6498;BMP280;3282;48.358;10.958;2022-08-21T03:45:37;96301.91;;;16.35
6498;BMP280;3282;48.358;10.958;2022-08-21T03:48:05;96302.28;;;16.33
6498;BMP280;3282;48.358;10.958;2022-08-21T03:50:37;96298.44;;;16.34
6498;BMP280;3282;48.358;10.958;2022-08-21T03:53:08;96294.16;;;16.37
6498;BMP280;3282;48.358;10.958;2022-08-21T03:55:43;96296.47;;;16.39
6498;BMP280;3282;48.358;10.958;2022-08-21T03:58:10;96299.16;;;16.39
6498;BMP280;3282;48.358;10.958;2022-08-21T04:00:44;96297.63;;;16.38
6498;BMP280;3282;48.358;10.958;2022-08-21T04:03:11;96297.63;;;16.38
6498;BMP280;3282;48.358;10.958;2022-08-21T04:05:38;96290.72;;;16.37
6498;BMP280;3282;48.358;10.958;2022-08-21T04:08:05;96286.09;;;16.33
6498;BMP280;3282;48.358;10.958;2022-08-21T04:10:35;96300.34;;;16.38
6498;BMP280;3282;48.358;10.958;2022-08-21T04:13:03;96292.66;;;16.36
6498;BMP280;3282;48.358;10.958;2022-08-21T04:15:30;96294.25;;;16.26
6498;BMP280;3282;48.358;10.958;2022-08-21T04:17:57;96283.09;;;16.20
6498;BMP280;3282;48.358;10.958;2022-08-21T04:20:24;96300.41;;;16.30
6498;BMP280;3282;48.358;10.958;2022-08-21T04:22:52;96296.63;;;16.17
6498;BMP280;3282;48.358;10.958;2022-08-21T04:25:21;96310.06;;;16.24
6498;BMP280;3282;48.358;10.958;2022-08-21T04:27:48;96308.19;;;16.17
6498;BMP280;3282;48.358;10.958;2022-08-21T04:30:15;96309.31;;;16.20
6498;BMP280;3282;48.358;10.958;2022-08-21T04:32:47;96317.44;;;16.20
6498;BMP280;3282;48.358;10.958;2022-08-21T04:35:22;96323.25;;;16.18
6498;BMP280;3282;48.358;10.958;2022-08-21T04:37:49;96322.47;;;16.18
6498;BMP280;3282;48.358;10.958;2022-08-21T04:40:18;96317.06;;;16.14
6498;BMP280;3282;48.358;10.958;2022-08-21T04:42:51;96316.28;;;16.14
6498;BMP280;3282;48.358;10.958;2022-08-21T04:45:35;96319.38;;;16.16
6498;BMP280;3282;48.358;10.958;2022-08-21T04:48:02;96319.81;;;16.11
6498;BMP280;3282;48.358;10.958;2022-08-21T04:53:05;96318.25;;;16.09
6498;BMP280;3282;48.358;10.958;2022-08-21T04:55:33;96313.66;;;16.06
6498;BMP280;3282;48.358;10.958;2022-08-21T04:58:00;96319.78;;;16.14
6498;BMP280;3282;48.358;10.958;2022-08-21T05:00:27;96335.50;;;16.30
6498;BMP280;3282;48.358;10.958;2022-08-21T05:02:55;96320.69;;;16.50
6498;BMP280;3282;48.358;10.958;2022-08-21T05:05:27;96331.53;;;16.92
6498;BMP280;3282;48.358;10.958;2022-08-21T05:07:57;96321.56;;;17.27
6498;BMP280;3282;48.358;10.958;2022-08-21T05:10:25;96334.88;;;17.80
6498;BMP280;3282;48.358;10.958;2022-08-21T05:12:52;96335.38;;;18.26
6498;BMP280;3282;48.358;10.958;2022-08-21T05:15:19;96333.16;;;18.73
6498;BMP280;3282;48.358;10.958;2022-08-21T05:17:46;96335.88;;;19.17
6498;BMP280;3282;48.358;10.958;2022-08-21T05:20:26;96339.09;;;19.69
6498;BMP280;3282;48.358;10.958;2022-08-21T05:22:52;96329.63;;;20.14
6498;BMP280;3282;48.358;10.958;2022-08-21T05:25:19;96324.94;;;20.48
6498;BMP280;3282;48.358;10.958;2022-08-21T05:27:49;96335.31;;;20.99
6498;BMP280;3282;48.358;10.958;2022-08-21T05:30:18;96328.69;;;21.43
6498;BMP280;3282;48.358;10.958;2022-08-21T05:32:46;96334.03;;;21.85
6498;BMP280;3282;48.358;10.958;2022-08-21T05:35:16;96336.31;;;22.26
6498;BMP280;3282;48.358;10.958;2022-08-21T05:37:42;96336.09;;;22.68
6498;BMP280;3282;48.358;10.958;2022-08-21T05:40:09;96329.59;;;23.10
6498;BMP280;3282;48.358;10.958;2022-08-21T05:42:52;96334.72;;;23.62
6498;BMP280;3282;48.358;10.958;2022-08-21T05:45:27;96338.03;;;23.98
6498;BMP280;3282;48.358;10.958;2022-08-21T05:48:17;96337.16;;;24.39
6498;BMP280;3282;48.358;10.958;2022-08-21T05:50:49;96340.41;;;24.74
6498;BMP280;3282;48.358;10.958;2022-08-21T05:53:17;96335.94;;;25.05
6498;BMP280;3282;48.358;10.958;2022-08-21T05:55:45;96336.00;;;25.29
6498;BMP280;3282;48.358;10.958;2022-08-21T05:58:18;96349.16;;;25.59
6498;BMP280;3282;48.358;10.958;2022-08-21T06:00:47;96347.72;;;25.73
6498;BMP280;3282;48.358;10.958;2022-08-21T06:03:23;96347.81;;;25.88
6498;BMP280;3282;48.358;10.958;2022-08-21T06:05:50;96345.59;;;26.02
6498;BMP280;3282;48.358;10.958;2022-08-21T06:08:19;96341.44;;;26.31
6498;BMP280;3282;48.358;10.958;2022-08-21T06:10:47;96343.47;;;26.45
6498;BMP280;3282;48.358;10.958;2022-08-21T06:13:15;96338.63;;;26.55
6498;BMP280;3282;48.358;10.958;2022-08-21T06:15:43;96342.97;;;26.71
6498;BMP280;3282;48.358;10.958;2022-08-21T06:18:13;96357.16;;;26.85
6498;BMP280;3282;48.358;10.958;2022-08-21T06:20:40;96360.09;;;26.96
6498;BMP280;3282;48.358;10.958;2022-08-21T06:23:07;96349.19;;;27.17
6498;BMP280;3282;48.358;10.958;2022-08-21T06:25:34;96348.78;;;27.39
6498;BMP280;3282;48.358;10.958;2022-08-21T06:28:08;96351.44;;;27.48
6498;BMP280;3282;48.358;10.958;2022-08-21T06:30:38;96355.28;;;27.57
6498;BMP280;3282;48.358;10.958;2022-08-21T06:33:06;96357.09;;;27.60
6498;BMP280;3282;48.358;10.958;2022-08-21T06:35:33;96360.84;;;27.77
6498;BMP280;3282;48.358;10.958;2022-08-21T06:38:00;96353.47;;;27.89
6498;BMP280;3282;48.358;10.958;2022-08-21T06:40:28;96355.78;;;27.91
6498;BMP280;3282;48.358;10.958;2022-08-21T06:43:08;96349.97;;;27.89
6498;BMP280;3282;48.358;10.958;2022-08-21T06:45:35;96352.34;;;27.96
6498;BMP280;3282;48.358;10.958;2022-08-21T06:48:03;96351.56;;;27.96
6498;BMP280;3282;48.358;10.958;2022-08-21T06:50:32;96352.22;;;27.70
6498;BMP280;3282;48.358;10.958;2022-08-21T06:53:00;96334.38;;;27.44
6498;BMP280;3282;48.358;10.958;2022-08-21T06:55:27;96337.44;;;27.31
6498;BMP280;3282;48.358;10.958;2022-08-21T06:57:54;96343.50;;;27.35
6498;BMP280;3282;48.358;10.958;2022-08-21T07:00:21;96330.91;;;27.29
6498;BMP280;3282;48.358;10.958;2022-08-21T07:02:48;96350.44;;;27.31
6498;BMP280;3282;48.358;10.958;2022-08-21T07:05:15;96346.38;;;27.11
6498;BMP280;3282;48.358;10.958;2022-08-21T07:07:45;96353.06;;;27.10
6498;BMP280;3282;48.358;10.958;2022-08-21T07:10:12;96362.47;;;26.88
6498;BMP280;3282;48.358;10.958;2022-08-21T07:12:49;96352.72;;;26.87
6498;BMP280;3282;48.358;10.958;2022-08-21T07:15:30;96344.19;;;27.00
6498;BMP280;3282;48.358;10.958;2022-08-21T07:17:58;96339.06;;;26.93
6498;BMP280;3282;48.358;10.958;2022-08-21T07:20:27;96347.97;;;27.18
6498;BMP280;3282;48.358;10.958;2022-08-21T07:22:54;96339.34;;;26.95
6498;BMP280;3282;48.358;10.958;2022-08-21T07:25:21;96342.00;;;27.04
6498;BMP280;3282;48.358;10.958;2022-08-21T07:27:48;96341.44;;;27.00
6498;BMP280;3282;48.358;10.958;2022-08-21T07:30:15;96342.00;;;27.04
6498;BMP280;3282;48.358;10.958;2022-08-21T07:32:42;96345.69;;;27.16
6498;BMP280;3282;48.358;10.958;2022-08-21T07:35:08;96345.81;;;27.22
6498;BMP280;3282;48.358;10.958;2022-08-21T07:37:35;96347.69;;;27.31
6498;BMP280;3282;48.358;10.958;2022-08-21T07:40:02;96349.53;;;27.40
6498;BMP280;3282;48.358;10.958;2022-08-21T07:42:29;96349.28;;;27.38
6498;BMP280;3282;48.358;10.958;2022-08-21T07:44:56;96339.13;;;27.44
6498;BMP280;3282;48.358;10.958;2022-08-21T07:47:23;96344.47;;;27.68
6498;BMP280;3282;48.358;10.958;2022-08-21T07:50:11;96329.22;;;27.67
6498;BMP280;3282;48.358;10.958;2022-08-21T07:52:39;96342.03;;;27.91
6498;BMP280;3282;48.358;10.958;2022-08-21T07:55:08;96339.78;;;27.95
6498;BMP280;3282;48.358;10.958;2022-08-21T07:57:34;96330.91;;;28.00
6498;BMP280;3282;48.358;10.958;2022-08-21T08:00:03;96318.16;;;28.03
6498;BMP280;3282;48.358;10.958;2022-08-21T08:02:37;96337.91;;;28.22
6498;BMP280;3282;48.358;10.958;2022-08-21T08:05:08;96346.13;;;28.01
6498;BMP280;3282;48.358;10.958;2022-08-21T08:07:35;96349.38;;;28.00
6498;BMP280;3282;48.358;10.958;2022-08-21T08:10:04;96342.63;;;28.22
6498;BMP280;3282;48.358;10.958;2022-08-21T08:12:34;96336.16;;;28.45
6498;BMP280;3282;48.358;10.958;2022-08-21T08:15:01;96345.00;;;28.55
6498;BMP280;3282;48.358;10.958;2022-08-21T08:17:28;96333.44;;;28.78
6498;BMP280;3282;48.358;10.958;2022-08-21T08:19:54;96331.53;;;28.89
6498;BMP280;3282;48.358;10.958;2022-08-21T08:22:22;96339.63;;;28.72
6498;BMP280;3282;48.358;10.958;2022-08-21T08:24:52;96337.09;;;28.42
6498;BMP280;3282;48.358;10.958;2022-08-21T08:27:20;96333.91;;;28.50
6498;BMP280;3282;48.358;10.958;2022-08-21T08:29:47;96333.66;;;28.74
6498;BMP280;3282;48.358;10.958;2022-08-21T08:32:14;96329.59;;;28.69
6498;BMP280;3282;48.358;10.958;2022-08-21T08:34:41;96341.28;;;28.90
6498;BMP280;3282;48.358;10.958;2022-08-21T08:37:09;96327.84;;;28.98
6498;BMP280;3282;48.358;10.958;2022-08-21T08:39:36;96325.38;;;29.06
6498;BMP280;3282;48.358;10.958;2022-08-21T08:44:57;96325.88;;;29.42
6498;BMP280;3282;48.358;10.958;2022-08-21T08:47:26;96317.72;;;29.59
6498;BMP280;3282;48.358;10.958;2022-08-21T08:50:14;96326.09;;;29.88
6498;BMP280;3282;48.358;10.958;2022-08-21T08:52:47;96327.69;;;30.12
6498;BMP280;3282;48.358;10.958;2022-08-21T08:55:21;96329.72;;;30.17
6498;BMP280;3282;48.358;10.958;2022-08-21T08:57:53;96328.19;;;30.16
6498;BMP280;3282;48.358;10.958;2022-08-21T09:00:22;96326.22;;;30.16
6498;BMP280;3282;48.358;10.958;2022-08-21T09:02:52;96309.34;;;29.97
6498;BMP280;3282;48.358;10.958;2022-08-21T09:13:51;96322.19;;;30.18
6498;BMP280;3282;48.358;10.958;2022-08-21T09:19:08;96324.22;;;30.28
6498;BMP280;3282;48.358;10.958;2022-08-21T09:21:47;96318.22;;;30.36
6498;BMP280;3282;48.358;10.958;2022-08-21T09:27:02;96324.78;;;30.72
6498;BMP280;3282;48.358;10.958;2022-08-21T09:29:34;96323.53;;;30.85
6498;BMP280;3282;48.358;10.958;2022-08-21T09:32:03;96322.28;;;30.80
6498;BMP280;3282;48.358;10.958;2022-08-21T09:34:35;96321.28;;;30.95
6498;BMP280;3282;48.358;10.958;2022-08-21T09:37:02;96313.47;;;30.70
6498;BMP280;3282;48.358;10.958;2022-08-21T09:39:37;96312.22;;;30.77
6498;BMP280;3282;48.358;10.958;2022-08-21T09:42:08;96315.50;;;30.93
6498;BMP280;3282;48.358;10.958;2022-08-21T09:44:38;96317.75;;;31.06
6498;BMP280;3282;48.358;10.958;2022-08-21T09:47:08;96305.16;;;31.05
6498;BMP280;3282;48.358;10.958;2022-08-21T09:49:39;96311.94;;;31.15
6498;BMP280;3282;48.358;10.958;2022-08-21T09:52:20;96305.91;;;31.11
6498;BMP280;3282;48.358;10.958;2022-08-21T09:54:52;96308.94;;;31.13
6498;BMP280;3282;48.358;10.958;2022-08-21T09:57:24;96307.94;;;31.16
6498;BMP280;3282;48.358;10.958;2022-08-21T10:02:50;96308.88;;;31.30
6498;BMP280;3282;48.358;10.958;2022-08-21T10:05:23;96304.13;;;31.31
6498;BMP280;3282;48.358;10.958;2022-08-21T10:07:51;96295.28;;;31.38
6498;BMP280;3282;48.358;10.958;2022-08-21T10:10:22;96292.28;;;31.41
6498;BMP280;3282;48.358;10.958;2022-08-21T10:21:16;96286.44;;;31.56
6498;BMP280;3282;48.358;10.958;2022-08-21T10:24:29;96284.66;;;31.65
6498;BMP280;3282;48.358;10.958;2022-08-21T10:27:21;96291.09;;;31.79
6498;BMP280;3282;48.358;10.958;2022-08-21T10:29:55;96290.06;;;31.88
6498;BMP280;3282;48.358;10.958;2022-08-21T10:35:31;96284.50;;;31.28
6498;BMP280;3282;48.358;10.958;2022-08-21T10:55:16;96283.03;;;30.13
6498;BMP280;3282;48.358;10.958;2022-08-21T10:57:47;96276.81;;;30.47
6498;BMP280;3282;48.358;10.958;2022-08-21T11:00:19;96275.78;;;30.90
6498;BMP280;3282;48.358;10.958;2022-08-21T11:03:11;96272.53;;;30.86
6498;BMP280;3282;48.358;10.958;2022-08-21T11:05:47;96269.03;;;30.51
6498;BMP280;3282;48.358;10.958;2022-08-21T11:08:44;96269.03;;;30.40
6498;BMP280;3282;48.358;10.958;2022-08-21T11:11:20;96267.78;;;30.58
6498;BMP280;3282;48.358;10.958;2022-08-21T11:13:53;96267.78;;;30.86
6498;BMP280;3282;48.358;10.958;2022-08-21T11:16:40;96262.72;;;30.96
6498;BMP280;3282;48.358;10.958;2022-08-21T11:19:15;96265.00;;;30.92
6498;BMP280;3282;48.358;10.958;2022-08-21T11:21:48;96273.28;;;31.04
6498;BMP280;3282;48.358;10.958;2022-08-21T11:27:01;96256.38;;;31.30
6498;BMP280;3282;48.358;10.958;2022-08-21T11:29:33;96261.72;;;31.70
6498;BMP280;3282;48.358;10.958;2022-08-21T11:51:13;96247.50;;;31.49
6498;BMP280;3282;48.358;10.958;2022-08-21T11:56:41;96239.50;;;31.34
6498;BMP280;3282;48.358;10.958;2022-08-21T11:59:18;96233.97;;;31.34
6498;BMP280;3282;48.358;10.958;2022-08-21T12:01:50;96237.91;;;31.55
6498;BMP280;3282;48.358;10.958;2022-08-21T12:04:29;96243.22;;;31.48
6498;BMP280;3282;48.358;10.958;2022-08-21T12:07:10;96240.41;;;30.89
6498;BMP280;3282;48.358;10.958;2022-08-21T12:09:37;96238.19;;;30.53
6498;BMP280;3282;48.358;10.958;2022-08-21T12:12:33;96239.41;;;30.52
6498;BMP280;3282;48.358;10.958;2022-08-21T12:23:17;96229.78;;;31.10
6498;BMP280;3282;48.358;10.958;2022-08-21T12:26:00;96224.66;;;31.37
6498;BMP280;3282;48.358;10.958;2022-08-21T12:28:32;96225.41;;;31.37
6498;BMP280;3282;48.358;10.958;2022-08-21T12:31:00;96222.59;;;31.54
6498;BMP280;3282;48.358;10.958;2022-08-21T12:33:32;96217.34;;;31.45
6498;BMP280;3282;48.358;10.958;2022-08-21T12:36:09;96219.34;;;31.50
6498;BMP280;3282;48.358;10.958;2022-08-21T12:38:50;96203.13;;;31.66
6498;BMP280;3282;48.358;10.958;2022-08-21T12:41:59;96200.06;;;31.75
6498;BMP280;3282;48.358;10.958;2022-08-21T12:44:44;96189.66;;;31.93
6498;BMP280;3282;48.358;10.958;2022-08-21T12:47:31;96191.56;;;32.09
6498;BMP280;3282;48.358;10.958;2022-08-21T12:50:05;96190.72;;;32.20
6498;BMP280;3282;48.358;10.958;2022-08-21T12:52:38;96181.47;;;32.12
6498;BMP280;3282;48.358;10.958;2022-08-21T12:55:24;96183.19;;;32.15
6498;BMP280;3282;48.358;10.958;2022-08-21T12:57:52;96178.88;;;32.20
6498;BMP280;3282;48.358;10.958;2022-08-21T13:00:24;96176.75;;;32.32
6498;BMP280;3282;48.358;10.958;2022-08-21T13:02:54;96168.56;;;32.20
6498;BMP280;3282;48.358;10.958;2022-08-21T13:07:51;96164.66;;;31.74
6498;BMP280;3282;48.358;10.958;2022-08-21T13:10:29;96172.28;;;31.62
6498;BMP280;3282;48.358;10.958;2022-08-21T13:13:00;96185.88;;;31.54
6498;BMP280;3282;48.358;10.958;2022-08-21T13:15:41;96181.03;;;31.18
6498;BMP280;3282;48.358;10.958;2022-08-21T13:18:24;96177.19;;;30.62
6498;BMP280;3282;48.358;10.958;2022-08-21T13:20:52;96179.47;;;30.24
6498;BMP280;3282;48.358;10.958;2022-08-21T13:23:34;96171.41;;;29.92
6498;BMP280;3282;48.358;10.958;2022-08-21T13:26:01;96171.66;;;29.94
6498;BMP280;3282;48.358;10.958;2022-08-21T13:28:43;96174.63;;;29.79
6498;BMP280;3282;48.358;10.958;2022-08-21T13:31:19;96169.13;;;29.84
6498;BMP280;3282;48.358;10.958;2022-08-21T13:33:48;96166.38;;;29.84
6498;BMP280;3282;48.358;10.958;2022-08-21T13:36:21;96169.38;;;29.92
6498;BMP280;3282;48.358;10.958;2022-08-21T13:38:50;96168.66;;;30.14
6498;BMP280;3282;48.358;10.958;2022-08-21T13:41:31;96162.13;;;30.23
6498;BMP280;3282;48.358;10.958;2022-08-21T13:44:02;96160.63;;;30.11
6498;BMP280;3282;48.358;10.958;2022-08-21T13:46:34;96162.38;;;30.08
6498;BMP280;3282;48.358;10.958;2022-08-21T13:49:03;96166.13;;;29.88
6498;BMP280;3282;48.358;10.958;2022-08-21T13:51:31;96163.56;;;29.56
6498;BMP280;3282;48.358;10.958;2022-08-21T13:53:58;96163.94;;;29.26
6498;BMP280;3282;48.358;10.958;2022-08-21T13:56:33;96158.44;;;29.26
6498;BMP280;3282;48.358;10.958;2022-08-21T13:59:07;96163.00;;;29.46
6498;BMP280;3282;48.358;10.958;2022-08-21T14:01:52;96162.84;;;29.67
6498;BMP280;3282;48.358;10.958;2022-08-21T14:04:47;96153.81;;;29.66
6498;BMP280;3282;48.358;10.958;2022-08-21T14:07:24;96165.09;;;29.68
6498;BMP280;3282;48.358;10.958;2022-08-21T14:09:52;96165.38;;;29.82
6498;BMP280;3282;48.358;10.958;2022-08-21T14:12:28;96168.91;;;29.94
6498;BMP280;3282;48.358;10.958;2022-08-21T14:14:56;96164.63;;;29.87
6498;BMP280;3282;48.358;10.958;2022-08-21T14:17:29;96160.34;;;29.74
6498;BMP280;3282;48.358;10.958;2022-08-21T14:20:02;96161.31;;;29.71
6498;BMP280;3282;48.358;10.958;2022-08-21T14:22:42;96158.03;;;29.50
6498;BMP280;3282;48.358;10.958;2022-08-21T14:25:13;96159.44;;;29.23
6498;BMP280;3282;48.358;10.958;2022-08-21T14:27:51;96161.59;;;29.01
6498;BMP280;3282;48.358;10.958;2022-08-21T14:32:50;96158.38;;;29.09
6498;BMP280;3282;48.358;10.958;2022-08-21T14:35:17;96157.69;;;29.25
6498;BMP280;3282;48.358;10.958;2022-08-21T14:37:49;96156.19;;;29.24
6498;BMP280;3282;48.358;10.958;2022-08-21T14:40:22;96161.03;;;28.92
6498;BMP280;3282;48.358;10.958;2022-08-21T14:42:49;96154.31;;;28.55
6498;BMP280;3282;48.358;10.958;2022-08-21T14:45:27;96146.56;;;28.27
6498;BMP280;3282;48.358;10.958;2022-08-21T14:47:55;96154.03;;;28.20
6498;BMP280;3282;48.358;10.958;2022-08-21T14:50:22;96147.53;;;28.18
6498;BMP280;3282;48.358;10.958;2022-08-21T14:52:53;96151.63;;;28.02
6498;BMP280;3282;48.358;10.958;2022-08-21T14:55:20;96152.53;;;27.93
6498;BMP280;3282;48.358;10.958;2022-08-21T14:57:48;96151.13;;;27.77
6498;BMP280;3282;48.358;10.958;2022-08-21T15:00:21;96152.81;;;27.69
6498;BMP280;3282;48.358;10.958;2022-08-21T15:03:00;96143.88;;;27.53
6498;BMP280;3282;48.358;10.958;2022-08-21T15:05:28;96150.75;;;27.43
6498;BMP280;3282;48.358;10.958;2022-08-21T15:08:00;96149.47;;;27.38
6498;BMP280;3282;48.358;10.958;2022-08-21T15:10:30;96140.09;;;27.30
6498;BMP280;3282;48.358;10.958;2022-08-21T15:12:58;96142.03;;;27.23
6498;BMP280;3282;48.358;10.958;2022-08-21T15:15:25;96148.97;;;27.40
6498;BMP280;3282;48.358;10.958;2022-08-21T15:17:52;96139.34;;;27.50
6498;BMP280;3282;48.358;10.958;2022-08-21T15:20:19;96133.09;;;27.49
6498;BMP280;3282;48.358;10.958;2022-08-21T15:22:47;96147.75;;;27.61
6498;BMP280;3282;48.358;10.958;2022-08-21T15:25:15;96136.59;;;27.71
6498;BMP280;3282;48.358;10.958;2022-08-21T15:27:43;96128.81;;;27.69
6498;BMP280;3282;48.358;10.958;2022-08-21T15:30:10;96139.19;;;27.59
6498;BMP280;3282;48.358;10.958;2022-08-21T15:32:37;96140.97;;;27.62
6498;BMP280;3282;48.358;10.958;2022-08-21T15:35:04;96134.53;;;27.66
6498;BMP280;3282;48.358;10.958;2022-08-21T15:37:31;96133.13;;;27.76
6498;BMP280;3282;48.358;10.958;2022-08-21T15:39:58;96126.75;;;27.64
6498;BMP280;3282;48.358;10.958;2022-08-21T15:42:30;96131.25;;;27.41
6498;BMP280;3282;48.358;10.958;2022-08-21T15:44:59;96130.50;;;27.19
6498;BMP280;3282;48.358;10.958;2022-08-21T15:47:29;96121.72;;;27.15
6498;BMP280;3282;48.358;10.958;2022-08-21T15:49:59;96120.22;;;27.14
6498;BMP280;3282;48.358;10.958;2022-08-21T15:52:28;96124.16;;;27.13
6498;BMP280;3282;48.358;10.958;2022-08-21T15:54:54;96124.38;;;27.09
6498;BMP280;3282;48.358;10.958;2022-08-21T15:57:28;96117.03;;;27.01
6498;BMP280;3282;48.358;10.958;2022-08-21T16:03:27;96120.66;;;26.56
6498;BMP280;3282;48.358;10.958;2022-08-21T16:05:54;96116.44;;;26.40
6498;BMP280;3282;48.358;10.958;2022-08-21T16:08:25;96113.88;;;26.21
6498;BMP280;3282;48.358;10.958;2022-08-21T16:10:52;96120.31;;;26.18
6498;BMP280;3282;48.358;10.958;2022-08-21T16:13:25;96117.69;;;26.09
6498;BMP280;3282;48.358;10.958;2022-08-21T16:15:52;96120.97;;;25.98